• Join FlightAware (Why Join?)
  • Login
  • US Flag 
 
09:46AM EST


 

Airport Tracker/Info


-or-


 

Live Flight TrackerFlight Track Log ✈ TAM8053 ✈ 01-Oct-2013 ✈ KMIA - SBCF / CNF

Flight Track Log - Related Links

Times and Time Zones

All times are in EDT time to prevent confusion due to time zone crossing. See the TAM8053 flight status page for this flight to view local times or setup timezone preferences in your user account.

Time Position Orientation Groundspeed Altitude Reporting Facility
EDT Latitude Longitude Course Direction KTS MPH feet Rate Location/Type
10:25AM 25.8010 -80.2950 360° North 88 101  Level FlightAware
10:26AM 25.8020 -80.2800 86° East 140 161 1,080 Level FlightAware
10:26AM 25.8020 -80.2570 90° East 169 194 900 2,160 Climbing FlightAware
10:27AM 25.7980 -80.2390 104° East 170 196 1,800 1,800 Climbing FlightAware
10:27AM 25.7910 -80.2230 116° Southeast 176 203 2,200 1,140 Climbing FlightAware
10:27AM 25.7830 -80.2050 116° Southeast 189 217 2,600 780 Climbing FlightAware
10:28AM 25.7740 -80.1840 115° Southeast 215 247 2,800 780 Climbing FlightAware
10:28AM 25.7660 -80.1660 116° Southeast 237 273 3,100 960 Climbing FlightAware
10:28AM 25.7560 -80.1440 117° Southeast 258 297 3,400 1,500 Climbing FlightAware
10:29AM 25.7460 -80.1200 115° Southeast 266 306 4,100 2,160 Climbing FlightAware
10:29AM 25.7410 -80.0980 104° East 270 311 4,700 2,280 Climbing FlightAware
10:29AM 25.7360 -80.0730 103° East 275 316 5,400 2,400 Climbing FlightAware
10:30AM 25.7280 -80.0400 105° East 276 318 6,400 2,280 Climbing FlightAware
10:30AM 25.7220 -80.0120 103° East 282 325 7,100 2,220 Climbing FlightAware
10:30AM 25.7160 -79.9850 104° East 286 329 7,900 2,220 Climbing FlightAware
10:31AM 25.7090 -79.9550 105° East 288 331 8,600 2,100 Climbing FlightAware
10:31AM 25.7030 -79.9270 103° East 292 336 9,300 1,740 Climbing FlightAware
10:31AM 25.6910 -79.8720 104° East 309 356 10,300 1,200 Climbing FlightAware
10:32AM 25.6780 -79.8150 104° East 343 395 10,800 1,140 Climbing FlightAware
10:33AM 25.6630 -79.7510 105° East 361 415 11,700 1,620 Climbing FlightAware
10:33AM 25.6490 -79.6890 104° East 368 423 12,700 1,740 Climbing FlightAware
10:34AM 25.6350 -79.6290 104° East 376 433 13,700 1,560 Climbing FlightAware
10:34AM 25.6200 -79.5610 104° East 388 447 14,500 1,560 Climbing FlightAware
10:35AM 25.6040 -79.4920 104° East 392 451 15,600 1,740 Climbing FlightAware
10:36AM 25.5880 -79.4220 104° East 397 457 16,600 1,560 Climbing FlightAware
10:36AM 25.5710 -79.3500 105° East 402 463 17,500 1,500 Climbing FlightAware
10:37AM 25.5560 -79.2850 104° East 407 468 18,300 1,260 Climbing FlightAware
10:37AM 25.5390 -79.2120 104° East 415 478 19,000 1,080 Climbing FlightAware
10:38AM 25.5240 -79.1440 104° East 421 484 19,600 1,200 Climbing FlightAware
10:38AM 25.5080 -79.0770 105° East 427 491 20,300 1,320 Climbing FlightAware
10:39AM 25.4890 -78.9920 104° East 430 495 21,200 1,260 Climbing FlightAware
10:40AM 25.4670 -78.8960 104° East 433 498 22,100 1,140 Climbing FlightAware
10:40AM 25.4490 -78.8190 104° East 438 504 22,800 1,080 Climbing FlightAware
10:41AM 25.4300 -78.7370 104° East 442 509 23,500 1,080 Climbing FlightAware
10:42AM 25.4130 -78.6640 104° East 448 516 24,100 1,020 Climbing FlightAware
10:42AM 25.3940 -78.5840 105° East 450 518 24,700 600 Climbing FlightAware
10:43AM 25.3730 -78.4900 104° East 454 522 25,000 420 Climbing FlightAware
10:44AM 25.3530 -78.4060 105° East 456 525 25,400 1,140 Climbing FlightAware
10:44AM 25.3270 -78.2990 105° East 468 539 26,500 1,680 Climbing FlightAware
10:45AM 25.3000 -78.2230 111° Southeast 464 534 27,300 1,800 Climbing FlightAware
10:46AM 25.2640 -78.1530 120° Southeast 431 496 28,900 1,380 Climbing FlightAware
10:46AM 25.2280 -78.0850 120° Southeast 435 501 29,100 480 Climbing FlightAware
10:47AM 25.1900 -78.0100 119° Southeast 443 510 29,500 300 Climbing FlightAware
10:47AM 25.1590 -77.9460 118° Southeast 443 510 29,500 720 Level FlightAware
10:48AM 25.1310 -77.8760 114° Southeast 453 521 30,300 1,080 Climbing FlightAware
10:48AM 25.1140 -77.7880 102° East 460 529 30,700 360 Climbing FlightAware
10:49AM 25.1000 -77.7180 102° East 461 531 30,800 60 Climbing FlightAware
10:50AM 25.0860 -77.6450 102° East 461 531 30,800  Level FlightAware
10:50AM 25.0730 -77.5750 102° East 461 531 30,800 720 Level FlightAware
10:51AM 25.0080 -77.4660 123° Southeast 32,000 1,080 Climbing FlightAware
10:51AM 24.9670 -77.3890 120° Southeast 474 545 32,100 60 Climbing FlightAware
10:52AM 24.9270 -77.3220 123° Southeast 474 545 32,100  Level FlightAware
10:53AM 24.8890 -77.2580 123° Southeast 474 545 32,100  Level FlightAware
10:53AM 24.8550 -77.1990 122° Southeast 474 545 32,100  Level FlightAware
10:54AM 24.8200 -77.1410 124° Southeast 474 545 32,100  Level FlightAware
10:54AM 24.7810 -77.0740 123° Southeast 474 545 32,100  Level FlightAware
10:55AM 24.7420 -77.0080 123° Southeast 474 545 32,100  Level FlightAware
10:56AM 24.7040 -76.9430 123° Southeast 474 545 32,100  Level FlightAware
10:56AM 24.6670 -76.8810 123° Southeast 474 545 32,100  Level FlightAware
10:57AM 24.6290 -76.8170 123° Southeast 474 545 32,100  Level FlightAware
10:58AM 24.5920 -76.7540 123° Southeast 474 545 32,100  Level FlightAware
10:58AM 24.5550 -76.6920 123° Southeast 474 545 32,100  Level FlightAware
10:59AM 24.5190 -76.6300 123° Southeast 474 545 32,100  Level FlightAware
10:59AM 24.4810 -76.5660 123° Southeast 474 545 32,100  Level FlightAware
11:00AM 24.4470 -76.5080 123° Southeast 474 545 32,100  Level FlightAware
11:01AM 24.4110 -76.4480 123° Southeast 474 545 32,100  Level FlightAware
11:01AM 24.3750 -76.3860 123° Southeast 474 545 32,100 2,640 Level FlightAware
11:02AM 24.2156 -75.9883 123° Southeast 492 566 37,000 2,160 Climbing Miami Center
11:03AM 24.1458 -75.8614 121° Southeast 492 566 37,000  Level Miami Center
11:04AM 24.0758 -75.7322 121° Southeast 492 566 37,000  Level Miami Center
11:05AM 24.0058 -75.6033 121° Southeast 492 566 37,000  Level Miami Center
11:06AM 23.9378 -75.4767 120° Southeast 492 566 37,000  Level Miami Center
11:07AM 23.8678 -75.3478 121° Southeast 492 566 37,000  Level Miami Center
11:08AM 23.7889 -75.2103 122° Southeast 492 566 37,000  Level Miami Center
11:09AM 23.7183 -75.0819 121° Southeast 492 566 37,000  Level Miami Center
11:10AM 23.6481 -74.9581 122° Southeast 487 560 37,000  Level Miami Center
11:11AM 23.5772 -74.8300 121° Southeast 487 560 37,000  Level Miami Center
11:12AM 23.5003 -74.7042 124° Southeast 492 566 37,000 -720 Level Miami Center
11:13AM 23.4275 -74.5833 123° Southeast 492 566 35,600 -1,020 Descending Miami Center
11:14AM 23.3442 -74.4694 129° Southeast 487 560 35,000 -300 Descending Miami Center
11:15AM 23.2567 -74.3556 130° Southeast 487 560 35,000  Level Miami Center
11:17AM 23.1672 -74.2467 132° Southeast 487 560 35,000  Level Miami Center
11:18AM 23.0664 -74.1111 129° Southeast 487 560 35,000  Level Miami Center
11:19AM 22.9767 -73.9981 131° Southeast 487 560 35,000  Level Miami Center
11:20AM 22.8867 -73.8872 131° Southeast 487 560 35,000  Level Miami Center
11:21AM 22.8011 -73.7767 130° Southeast 487 560 35,000  Level Miami Center
11:22AM 22.7108 -73.6639 131° Southeast 487 560 35,000  Level Miami Center
11:23AM 22.6414 -73.5372 121° Southeast 484 557 35,000  Level Miami Center
11:24AM 22.6144 -73.4547 109° East 470 541 35,000  Level Miami Center
11:25AM 22.5289 -73.2728 117° Southeast 475 547 35,000  Level Miami Center
11:26AM 22.5008 -73.1500 104° East 475 547 35,000  Level Miami Center
11:27AM 22.4783 -73.0044 99° East 466 536 35,000  Level Miami Center
11:28AM 22.4469 -72.8347 101° East 477 549 35,000  Level Miami Center
11:29AM 22.4311 -72.7161 98° East 482 555 35,000 180 Level Miami Center
11:30AM 22.4042 -72.5733 102° East 487 560 35,400 540 Climbing Miami Center
11:31AM 22.3408 -72.4072 112° Southeast 487 560 36,100 540 Climbing Miami Center
11:32AM 22.2786 -72.2747 117° Southeast 487 560 36,500 420 Climbing Miami Center
11:33AM 22.2100 -72.1469 120° Southeast 492 566 37,000 240 Climbing Miami Center
11:34AM 22.1411 -72.0172 120° Southeast 492 566 37,000  Level Miami Center
11:35AM 22.0756 -71.9236 127° Southeast 497 572 37,000  Level Miami Center
11:36AM 21.9667 -71.7889 131° Southeast 497 572 37,000  Level Miami Center
11:37AM 21.8794 -71.6781 130° Southeast 492 566 37,000  Level Miami Center
11:43AM 21.3450 -71.0040 130° Southeast 501 577 37,000  Level FlightAware
11:43AM 21.2980 -70.9390 128° Southeast 501 577 37,000  Level FlightAware
11:44AM 21.2390 -70.8530 126° Southeast 501 577 37,000  Level FlightAware
11:45AM 21.1950 -70.7880 126° Southeast 501 577 37,000  Level FlightAware
11:45AM 21.1560 -70.7300 126° Southeast 501 577 37,000  Level FlightAware
11:46AM 21.1130 -70.6670 126° Southeast 501 577 37,000  Level FlightAware
11:46AM 21.0290 -70.5520 128° Southeast 511 588 37,000  Level FlightAware
11:47AM 20.9880 -70.4940 127° Southeast 511 588 37,000  Level FlightAware
11:48AM 20.9180 -70.3940 127° Southeast 510 587 37,000  Level FlightAware
11:48AM 20.8720 -70.3290 127° Southeast 510 587 37,000  Level FlightAware
11:49AM 20.8260 -70.2630 127° Southeast 509 586 37,000  Level FlightAware
11:49AM 20.7780 -70.1940 127° Southeast 508 585 37,000  Level FlightAware
11:50AM 20.7030 -70.0900 128° Southeast 508 585 37,000  Level FlightAware
11:51AM 20.6380 -69.9990 127° Southeast 506 582 37,000  Level FlightAware
11:51AM 20.5880 -69.9290 127° Southeast 504 580 37,000  Level FlightAware
11:52AM 20.5350 -69.8560 128° Southeast 503 579 37,000  Level FlightAware
11:53AM 20.4830 -69.7830 127° Southeast 503 579 37,000  Level FlightAware
11:53AM 20.4440 -69.7280 127° Southeast 500 575 37,000  Level FlightAware
11:54AM 20.3880 -69.6520 128° Southeast 497 572 37,000  Level FlightAware
11:54AM 20.3360 -69.5820 128° Southeast 497 572 37,000  Level FlightAware
11:55AM 20.2870 -69.5160 128° Southeast 498 573 37,000  Level FlightAware
11:56AM 20.2390 -69.4510 128° Southeast 498 573 37,000  Level FlightAware
11:56AM 20.1880 -69.3800 127° Southeast 499 574 37,000  Level FlightAware
11:57AM 20.1380 -69.3130 128° Southeast 500 575 37,000  Level FlightAware
11:57AM 20.0890 -69.2470 128° Southeast 500 575 37,000  Level FlightAware
11:58AM 20.0380 -69.1770 128° Southeast 500 575 37,000  Level FlightAware
11:59AM 19.9860 -69.1080 129° Southeast 499 574 37,000  Level FlightAware
11:59AM 19.9380 -69.0430 128° Southeast 499 574 37,000  Level FlightAware
12:00PM 19.8830 -68.9690 128° Southeast 499 574 37,000  Level FlightAware
12:00PM 19.8390 -68.9090 128° Southeast 498 573 37,000  Level FlightAware
12:01PM 19.7920 -68.8450 128° Southeast 495 570 37,000  Level FlightAware
12:01PM 19.7370 -68.7700 128° Southeast 493 567 37,000  Level FlightAware
12:02PM 19.6910 -68.7080 128° Southeast 491 565 37,000  Level FlightAware
12:03PM 19.6410 -68.6390 128° Southeast 491 565 37,000  Level FlightAware
12:03PM 19.5920 -68.5740 129° Southeast 493 567 37,000  Level FlightAware
12:04PM 19.5380 -68.5010 128° Southeast 494 568 37,000  Level FlightAware
12:04PM 19.4990 -68.4470 127° Southeast 493 567 37,000  Level FlightAware
12:05PM 19.4430 -68.3720 128° Southeast 493 567 37,000  Level FlightAware
12:06PM 19.3930 -68.3040 128° Southeast 492 566 37,000  Level FlightAware
12:06PM 19.3450 -68.2390 128° Southeast 491 565 37,000  Level FlightAware
12:07PM 19.2970 -68.1740 128° Southeast 492 566 37,000  Level FlightAware
12:07PM 19.2480 -68.1090 129° Southeast 492 566 37,000  Level FlightAware
12:08PM 19.2000 -68.0450 128° Southeast 492 566 37,000  Level FlightAware
12:08PM 19.1480 -67.9750 128° Southeast 490 564 37,000  Level FlightAware
12:09PM 19.0970 -67.9060 128° Southeast 490 564 37,000  Level FlightAware
12:10PM 19.0460 -67.8380 128° Southeast 490 564 37,000  Level FlightAware
12:10PM 19.0010 -67.7780 128° Southeast 492 566 37,000  Level FlightAware
12:11PM 18.9370 -67.6910 128° Southeast 492 566 37,000  Level FlightAware
12:12PM 18.8800 -67.6150 128° Southeast 491 565 37,000  Level FlightAware
12:12PM 18.8320 -67.5520 129° Southeast 491 565 37,000  Level FlightAware
12:13PM 18.7800 -67.4830 129° Southeast 491 565 37,000  Level FlightAware
12:13PM 18.7330 -67.4210 129° Southeast 492 566 37,000  Level FlightAware
12:14PM 18.6880 -67.3610 128° Southeast 491 565 37,000  Level FlightAware
12:15PM 18.6340 -67.2890 128° Southeast 490 564 37,000  Level FlightAware
12:15PM 18.5890 -67.2290 128° Southeast 489 563 37,000  Level FlightAware
12:16PM 18.5420 -67.1660 128° Southeast 488 562 37,000  Level FlightAware
12:16PM 18.5000 -67.1170 132° Southeast 490 564 37,000  Level FlightAware
12:17PM 18.4430 -67.0610 137° Southeast 492 566 37,000  Level FlightAware
12:17PM 18.3630 -66.9920 141° Southeast 491 565 37,000  Level FlightAware
12:18PM 18.2990 -66.9360 140° Southeast 492 566 37,000  Level FlightAware
12:19PM 18.2380 -66.8830 140° Southeast 492 566 37,000  Level FlightAware
12:19PM 18.1710 -66.8250 141° Southeast 492 566 37,000  Level FlightAware
12:20PM 18.1120 -66.7740 141° Southeast 492 566 37,000  Level FlightAware
12:20PM 18.0490 -66.7200 141° Southeast 492 566 37,000  Level FlightAware
12:21PM 17.9920 -66.6710 141° Southeast 492 566 37,000  Level FlightAware
12:21PM 17.9360 -66.6220 140° Southeast 492 566 37,000  Level FlightAware
12:22PM 17.8730 -66.5680 141° Southeast 493 567 37,000  Level FlightAware
12:23PM 17.8150 -66.5180 141° Southeast 493 567 37,000  Level FlightAware
12:23PM 17.7340 -66.4490 141° Southeast 494 568 37,000  Level FlightAware
12:24PM 17.6710 -66.3950 141° Southeast 495 570 37,000  Level FlightAware
12:25PM 17.6090 -66.3410 140° Southeast 495 570 37,000  Level FlightAware
12:25PM 17.5500 -66.2900 141° Southeast 493 567 37,000  Level FlightAware
12:26PM 17.4870 -66.2370 141° Southeast 491 565 37,000  Level FlightAware
12:26PM 17.4220 -66.1810 141° Southeast 489 563 37,000  Level FlightAware
12:27PM 17.3600 -66.1290 141° Southeast 488 562 37,000  Level FlightAware
12:27PM 17.3060 -66.0820 140° Southeast 486 559 37,000  Level FlightAware
12:28PM 17.2400 -66.0260 141° Southeast 487 560 37,000  Level FlightAware
12:29PM 17.1840 -65.9780 141° Southeast 487 560 37,000  Level FlightAware
12:29PM 17.1160 -65.9200 141° Southeast 487 560 37,000  Level FlightAware
12:30PM 17.0390 -65.8540 141° Southeast 487 560 37,000  Level FlightAware
12:31PM 16.9730 -65.7990 141° Southeast 486 559 37,000  Level FlightAware
12:31PM 16.9170 -65.7510 141° Southeast 486 559 37,000  Level FlightAware
12:32PM 16.8310 -65.6780 141° Southeast 485 558 37,000  Level FlightAware
12:33PM 16.7610 -65.6190 141° Southeast 484 557 37,000  Level FlightAware
12:33PM 16.7050 -65.5700 140° Southeast 484 557 37,000  Level FlightAware
12:34PM 16.6520 -65.5240 140° Southeast 484 557 37,000  Level FlightAware
12:35PM 16.5380 -65.4300 142° Southeast 487 560 37,000  Level FlightAware
12:35PM 16.4820 -65.3810 140° Southeast 487 560 37,000  Level FlightAware
12:36PM 16.4050 -65.3190 142° Southeast 489 563 37,000  Level FlightAware
12:37PM 16.3420 -65.2650 141° Southeast 491 565 37,000  Level FlightAware
12:37PM 16.2830 -65.2160 141° Southeast 490 564 37,000  Level FlightAware
12:38PM 16.2300 -65.1710 141° Southeast 491 565 37,000  Level FlightAware
12:38PM 16.1620 -65.1140 141° Southeast 491 565 37,000  Level FlightAware
12:39PM 16.0940 -65.0570 141° Southeast 491 565 37,000  Level FlightAware
12:39PM 16.0430 -65.0140 141° Southeast 492 566 37,000  Level FlightAware
12:40PM 15.9920 -64.9720 142° Southeast 492 566 37,000  Level FlightAware
12:41PM 15.9230 -64.9130 141° Southeast 492 566 37,000  Level FlightAware
12:41PM 15.8720 -64.8700 141° Southeast 492 566 37,000  Level FlightAware
12:42PM 15.8140 -64.8220 141° Southeast 492 566 37,000  Level FlightAware
12:43PM 15.7600 -64.7770 141° Southeast 492 566 37,000  Level FlightAware
12:43PM 15.7060 -64.7310 141° Southeast 492 566 37,000  Level FlightAware
12:44PM 15.6510 -64.6840 141° Southeast 492 566 37,000  Level FlightAware
12:44PM 15.5990 -64.6410 141° Southeast 492 566 37,000  Level FlightAware
12:45PM 15.5450 -64.5960 141° Southeast 492 566 37,000  Level FlightAware
12:46PM 15.4880 -64.5480 141° Southeast 492 566 37,000  Level FlightAware
12:46PM 15.4320 -64.5010 141° Southeast 492 566 37,000  Level FlightAware
12:47PM 15.3780 -64.4560 141° Southeast 492 566 37,000  Level FlightAware
12:47PM 15.3240 -64.4100 141° Southeast 492 566 37,000  Level FlightAware
12:48PM 15.2730 -64.3670 141° Southeast 492 566 37,000  Level FlightAware
12:49PM 15.2190 -64.3220 141° Southeast 492 566 37,000  Level FlightAware
12:49PM 15.1650 -64.2760 141° Southeast 492 566 37,000  Level FlightAware
12:56PM 14.4822 -63.8180 149° Southeast  Level FlightAware Approximate
12:57PM 14.3713 -63.7507 150° Southeast  Level FlightAware Approximate
12:58PM 14.2605 -63.6835 150° Southeast  Level FlightAware Approximate
12:59PM 14.1496 -63.6164 149° Southeast  Level FlightAware Approximate
01:00PM 14.0391 -63.5486 149° Southeast  Level FlightAware Approximate
01:01PM 13.9286 -63.4809 149° Southeast  Level FlightAware Approximate
01:02PM 13.8181 -63.4132 149° Southeast  Level FlightAware Approximate
01:03PM 13.7075 -63.3456 149° Southeast  Level FlightAware Approximate
01:04PM 13.5970 -63.2781 149° Southeast  Level FlightAware Approximate
01:05PM 13.4864 -63.2106 149° Southeast  Level FlightAware Approximate
01:06PM 13.3758 -63.1432 149° Southeast  Level FlightAware Approximate
01:07PM 13.2652 -63.0759 149° Southeast  Level FlightAware Approximate
01:08PM 13.1547 -63.0083 149° Southeast  Level FlightAware Approximate
01:08PM 12.7620 -62.7720 149° Southeast 493 567 37,000  Level FlightAware
01:09PM 12.6890 -62.7280 150° Southeast 493 567 37,000  Level FlightAware
01:09PM 12.6150 -62.6830 149° Southeast 494 568 37,000  Level FlightAware
01:10PM 12.5570 -62.6480 150° Southeast 494 568 37,000  Level FlightAware
01:10PM 12.4890 -62.6070 150° Southeast 494 568 37,000  Level FlightAware
01:11PM 12.4200 -62.5650 149° Southeast 494 568 37,000  Level FlightAware
01:12PM 12.3560 -62.5260 149° Southeast 493 567 37,000  Level FlightAware
01:12PM 12.2760 -62.4780 150° Southeast 493 567 37,000  Level FlightAware
01:13PM 12.2150 -62.4410 149° Southeast 491 565 37,000  Level FlightAware
01:13PM 12.1330 -62.3910 149° Southeast 488 562 37,000  Level FlightAware
01:14PM 12.0670 -62.3520 150° Southeast 488 562 37,000  Level FlightAware
01:15PM 12.0070 -62.3150 149° Southeast 488 562 37,000  Level FlightAware
01:15PM 11.9320 -62.2700 150° Southeast 489 563 37,000  Level FlightAware
01:16PM 11.8610 -62.2270 149° Southeast 491 565 37,000  Level FlightAware
01:16PM 11.7990 -62.1900 150° Southeast 491 565 37,000  Level FlightAware
01:17PM 11.7270 -62.1470 150° Southeast 489 563 37,000  Level FlightAware
01:18PM 11.6580 -62.1050 149° Southeast 489 563 37,000  Level FlightAware
01:18PM 11.5910 -62.0650 150° Southeast 487 560 37,000  Level FlightAware
01:19PM 11.5200 -62.0230 150° Southeast 486 559 37,000  Level FlightAware
01:19PM 11.4520 -61.9820 149° Southeast 486 559 37,000  Level FlightAware
01:20PM 11.3820 -61.9400 150° Southeast 485 558 37,000  Level FlightAware
01:20PM 11.3150 -61.8990 149° Southeast 485 558 37,000  Level FlightAware
01:21PM 11.2460 -61.8580 150° Southeast 485 558 37,000  Level FlightAware
01:22PM 11.1830 -61.8200 149° Southeast 484 557 37,000  Level FlightAware
01:22PM 11.1140 -61.7790 150° Southeast 485 558 37,000  Level FlightAware
01:23PM 11.0400 -61.7350 150° Southeast 485 558 37,000  Level FlightAware
01:23PM 10.9770 -61.6970 149° Southeast 485 558 37,000  Level FlightAware
01:24PM 10.9060 -61.6540 149° Southeast 486 559 37,000  Level FlightAware
01:25PM 10.8420 -61.6160 150° Southeast 487 560 37,000  Level FlightAware
01:25PM 10.7720 -61.5750 150° Southeast 487 560 37,000  Level FlightAware
01:26PM 10.7140 -61.5400 149° Southeast 486 559 37,000  Level FlightAware
01:26PM 10.6380 -61.4940 149° Southeast 489 563 37,000  Level FlightAware
01:27PM 10.5690 -61.4520 149° Southeast 489 563 37,000  Level FlightAware
01:27PM 10.4980 -61.4070 148° Southeast 489 563 37,000  Level FlightAware
01:28PM 10.4370 -61.3650 146° Southeast 490 564 37,000  Level FlightAware
01:29PM 10.3710 -61.3200 146° Southeast 489 563 37,000  Level FlightAware
01:29PM 10.2900 -61.2620 145° Southeast 490 564 37,000  Level FlightAware
01:30PM 10.2290 -61.2160 143° Southeast 489 563 37,000  Level FlightAware
01:31PM 10.1600 -61.1640 143° Southeast 489 563 37,000  Level FlightAware
01:31PM 10.1030 -61.1180 142° Southeast 489 563 37,000  Level FlightAware
01:32PM 10.0420 -61.0700 142° Southeast 490 564 37,000  Level FlightAware
01:32PM 9.9770 -61.0170 141° Southeast 488 562 37,000  Level FlightAware
01:33PM 9.9230 -60.9630 135° Southeast 486 559 37,000  Level FlightAware
01:33PM 9.8650 -60.9010 134° Southeast 486 559 37,000  Level FlightAware
01:34PM 9.8100 -60.8390 132° Southeast 486 559 37,000  Level FlightAware
01:35PM 9.7610 -60.7850 133° Southeast 487 560 37,000  Level FlightAware
01:35PM 9.7070 -60.7250 132° Southeast 487 560 37,000  Level FlightAware
01:36PM 9.6510 -60.6640 133° Southeast 486 559 37,000  Level FlightAware
01:36PM 9.6000 -60.6070 132° Southeast 485 558 37,000  Level FlightAware
01:37PM 9.5630 -60.5620 130° Southeast 485 558 37,000  Level FlightAware
01:37PM 9.5170 -60.4980 126° Southeast 483 556 37,000  Level FlightAware
01:38PM 9.4690 -60.4300 126° Southeast 481 554 37,000  Level FlightAware
01:39PM 9.4260 -60.3680 125° Southeast 479 551 37,000  Level FlightAware
01:39PM 9.3820 -60.3000 123° Southeast 477 549 37,000  Level FlightAware
01:40PM 9.3440 -60.2280 118° Southeast 478 550 37,000  Level FlightAware
01:40PM 9.3050 -60.1570 119° Southeast 478 550 37,000  Level FlightAware
01:41PM 9.2720 -60.0960 119° Southeast 479 551 37,000  Level FlightAware
01:41PM 9.2280 -60.0220 121° Southeast 481 554 37,000  Level FlightAware
01:42PM 9.1900 -59.9590 121° Southeast 482 555 37,000  Level FlightAware
01:43PM 9.1520 -59.8950 121° Southeast 482 555 37,000  Level FlightAware
01:43PM 9.1080 -59.8250 122° Southeast 484 557 37,000  Level FlightAware
01:44PM 9.0660 -59.7550 121° Southeast 489 563 37,000  Level FlightAware
01:44PM 9.0260 -59.6880 121° Southeast 492 566 37,000  Level FlightAware
01:45PM 8.9930 -59.6180 116° Southeast 487 560 37,000  Level FlightAware
01:46PM 8.9590 -59.5380 113° Southeast 477 549 37,000  Level FlightAware
01:46PM 8.9300 -59.4750 115° Southeast 479 551 37,000  Level FlightAware
01:47PM 8.8960 -59.4010 115° Southeast 479 551 37,000  Level FlightAware
01:47PM 8.8660 -59.3310 113° Southeast 480 552 37,000  Level FlightAware
01:48PM 8.8320 -59.2540 114° Southeast 479 551 37,000  Level FlightAware
01:49PM 8.7900 -59.1650 116° Southeast 481 554 37,000  Level FlightAware
01:49PM 8.7630 -59.1380 135° Southeast 478 550 37,000  Level FlightAware
01:49PM 8.7040 -59.0850 138° Southeast 476 548 37,000  Level FlightAware
01:50PM 8.6510 -59.0560 152° Southeast 474 545 37,000  Level FlightAware
01:51PM 8.5720 -59.0270 160° South 475 547 37,000  Level FlightAware
01:51PM 8.4810 -58.9920 159° South 480 552 37,000  Level FlightAware
01:52PM 8.4070 -58.9650 160° South 491 565 37,000  Level FlightAware
01:53PM 8.3230 -58.9330 159° South 491 565 37,000  Level FlightAware
01:53PM 8.2580 -58.9080 159° South 491 565 37,000  Level FlightAware
01:54PM 8.1970 -58.8840 159° South 491 565 37,000  Level FlightAware
01:54PM 8.1320 -58.8590 159° South 491 565 37,000  Level FlightAware
01:55PM 8.0650 -58.8330 159° South 491 565 37,000  Level FlightAware
01:56PM 7.9970 -58.8070 159° South 491 565 37,000  Level FlightAware
01:56PM 7.9300 -58.7810 159° South 491 565 37,000  Level FlightAware
01:57PM 7.8630 -58.7550 159° South 491 565 37,000  Level FlightAware
01:58PM 7.7810 -58.7230 159° South 491 565 37,000  Level FlightAware
01:58PM 7.7160 -58.6980 159° South 491 565 37,000  Level FlightAware
01:59PM 7.6510 -58.6720 158° South 491 565 37,000  Level FlightAware
01:59PM 7.5860 -58.6470 159° South 491 565 37,000  Level FlightAware
02:00PM 7.5030 -58.6150 159° South 491 565 37,000  Level FlightAware
02:01PM 7.4360 -58.5890 159° South 491 565 37,000  Level FlightAware
02:01PM 7.3710 -58.5640 159° South 491 565 37,000  Level FlightAware
02:04PM 7.1378 -58.4401 152° Southeast  Level Estimated
02:05PM 7.0241 -58.3797 152° Southeast  Level Estimated
02:06PM 6.9103 -58.3194 152° Southeast  Level Estimated
02:07PM 6.7966 -58.2591 152° Southeast  Level Estimated
02:08PM 6.6828 -58.1988 152° Southeast  Level Estimated
02:09PM 6.5690 -58.1385 152° Southeast  Level Estimated
02:10PM 6.4552 -58.0783 152° Southeast  Level Estimated
02:11PM 6.3414 -58.0181 152° Southeast  Level Estimated
02:12PM 6.2276 -57.9579 152° Southeast  Level Estimated
02:13PM 6.1138 -57.8977 152° Southeast  Level Estimated
02:14PM 6.0000 -57.8376 152° Southeast  Level Estimated
02:15PM 5.8862 -57.7775 152° Southeast  Level Estimated
02:16PM 5.7723 -57.7174 152° Southeast  Level Estimated
02:17PM 5.6585 -57.6573 152° Southeast  Level Estimated
02:18PM 5.5447 -57.5973 152° Southeast  Level Estimated
02:19PM 5.4308 -57.5373 152° Southeast  Level Estimated
02:20PM 5.3170 -57.4773 152° Southeast  Level Estimated
02:21PM 5.2031 -57.4173 152° Southeast  Level Estimated
02:22PM 5.0893 -57.3573 152° Southeast  Level Estimated
02:23PM 4.9754 -57.2974 152° Southeast  Level Estimated
02:24PM 4.8615 -57.2375 152° Southeast  Level Estimated
02:25PM 4.7476 -57.1776 152° Southeast  Level Estimated
02:26PM 4.6337 -57.1177 152° Southeast  Level Estimated
02:27PM 4.5198 -57.0579 152° Southeast  Level Estimated
02:28PM 4.4060 -56.9981 152° Southeast  Level Estimated
02:29PM 4.2920 -56.9383 152° Southeast  Level Estimated
02:30PM 4.1781 -56.8785 152° Southeast  Level Estimated
02:31PM 4.0642 -56.8187 152° Southeast  Level Estimated
02:32PM 3.9503 -56.7589 152° Southeast  Level Estimated
02:33PM 3.8364 -56.6992 152° Southeast  Level Estimated
02:34PM 3.7225 -56.6395 152° Southeast  Level Estimated
02:35PM 3.6086 -56.5798 152° Southeast  Level Estimated
02:36PM 3.4946 -56.5201 152° Southeast  Level Estimated
02:37PM 3.3807 -56.4604 152° Southeast  Level Estimated
02:38PM 3.2668 -56.4007 152° Southeast  Level Estimated
02:39PM 3.1528 -56.3411 152° Southeast  Level Estimated
02:40PM 3.0389 -56.2814 152° Southeast  Level Estimated
02:41PM 2.9249 -56.2218 152° Southeast  Level Estimated
02:42PM 2.8110 -56.1622 152° Southeast  Level Estimated
02:43PM 2.6970 -56.1026 152° Southeast  Level Estimated
02:44PM 2.5831 -56.0430 152° Southeast  Level Estimated
02:45PM 2.4691 -55.9834 152° Southeast  Level Estimated
02:46PM 2.3551 -55.9238 152° Southeast  Level Estimated
02:47PM 2.2412 -55.8643 152° Southeast  Level Estimated
02:48PM 2.1272 -55.8047 152° Southeast  Level Estimated
02:49PM 2.0132 -55.7452 152° Southeast  Level Estimated
02:50PM 1.8993 -55.6857 152° Southeast  Level Estimated
02:51PM 1.7853 -55.6261 152° Southeast  Level Estimated
02:52PM 1.6713 -55.5666 152° Southeast  Level Estimated
02:53PM 1.5573 -55.5071 152° Southeast  Level Estimated
02:54PM 1.4433 -55.4476 152° Southeast  Level Estimated
02:55PM 1.3294 -55.3881 152° Southeast  Level Estimated
02:56PM 1.2154 -55.3286 152° Southeast  Level Estimated
02:57PM 1.1014 -55.2691 152° Southeast  Level Estimated
02:58PM 0.9874 -55.2096 152° Southeast  Level Estimated
02:59PM 0.8734 -55.1501 152° Southeast  Level Estimated
03:00PM 0.7595 -55.0907 152° Southeast  Level Estimated
03:01PM 0.6455 -55.0312 152° Southeast  Level Estimated
03:02PM 0.5315 -54.9717 152° Southeast  Level Estimated
03:03PM 0.4175 -54.9123 152° Southeast  Level Estimated
03:04PM 0.3035 -54.8528 152° Southeast  Level Estimated
03:05PM 0.1895 -54.7933 152° Southeast  Level Estimated
03:06PM 0.0755 -54.7338 152° Southeast  Level Estimated
03:07PM -0.0385 -54.6744 152° Southeast  Level Estimated
03:08PM -0.1525 -54.6149 152° Southeast  Level Estimated
03:09PM -0.2665 -54.5554 152° Southeast  Level Estimated
03:10PM -0.3805 -54.4960 152° Southeast  Level Estimated
03:11PM -0.4944 -54.4365 152° Southeast  Level Estimated
03:12PM -0.6084 -54.3770 152° Southeast  Level Estimated
03:13PM -0.7224 -54.3176 152° Southeast  Level Estimated
03:14PM -0.8364 -54.2581 152° Southeast  Level Estimated
03:15PM -0.9504 -54.1986 152° Southeast  Level Estimated
03:16PM -1.0644 -54.1391 152° Southeast  Level Estimated
03:17PM -1.1784 -54.0796 152° Southeast  Level Estimated
03:18PM -1.2924 -54.0201 152° Southeast  Level Estimated
03:19PM -1.4063 -53.9606 152° Southeast  Level Estimated
03:20PM -1.5203 -53.9011 152° Southeast  Level Estimated
03:21PM -1.6343 -53.8416 152° Southeast  Level Estimated
03:22PM -1.7483 -53.7821 152° Southeast  Level Estimated
03:23PM -1.8622 -53.7226 152° Southeast  Level Estimated
03:24PM -1.9762 -53.6631 152° Southeast  Level Estimated
03:25PM -2.0902 -53.6035 152° Southeast  Level Estimated
03:26PM -2.2041 -53.5440 152° Southeast  Level Estimated
03:27PM -2.3181 -53.4844 152° Southeast  Level Estimated
03:28PM -2.4321 -53.4248 152° Southeast  Level Estimated
03:29PM -2.5460 -53.3652 152° Southeast  Level Estimated
03:30PM -2.6600 -53.3057 152° Southeast  Level Estimated
03:31PM -2.7740 -53.2461 152° Southeast  Level Estimated
03:32PM -2.8879 -53.1865 152° Southeast  Level Estimated
03:33PM -3.0019 -53.1268 152° Southeast  Level Estimated
03:34PM -3.1158 -53.0672 152° Southeast  Level Estimated
03:35PM -3.2297 -53.0075 152° Southeast  Level Estimated
03:36PM -3.3437 -52.9479 152° Southeast  Level Estimated
03:37PM -3.4576 -52.8882 152° Southeast  Level Estimated
03:38PM -3.5716 -52.8285 152° Southeast  Level Estimated
03:39PM -3.6855 -52.7688 152° Southeast  Level Estimated
03:40PM -3.7994 -52.7091 152° Southeast  Level Estimated
03:41PM -3.9133 -52.6493 152° Southeast  Level Estimated
03:42PM -4.0272 -52.5896 152° Southeast  Level Estimated
03:43PM -4.1412 -52.5298 152° Southeast  Level Estimated
03:44PM -4.2551 -52.4700 152° Southeast  Level Estimated
03:45PM -4.3690 -52.4102 152° Southeast  Level Estimated
03:46PM -4.4829 -52.3504 152° Southeast  Level Estimated
03:47PM -4.5968 -52.2906 152° Southeast  Level Estimated
03:48PM -4.7106 -52.2307 152° Southeast  Level Estimated
03:49PM -4.8245 -52.1708 152° Southeast  Level Estimated
03:50PM -4.9384 -52.1109 152° Southeast  Level Estimated
03:51PM -5.0523 -52.0510 152° Southeast  Level Estimated
03:52PM -5.1662 -51.9911 152° Southeast  Level Estimated
03:53PM -5.2800 -51.9311 152° Southeast  Level Estimated
03:54PM -5.3939 -51.8711 152° Southeast  Level Estimated
03:55PM -5.5077 -51.8111 152° Southeast  Level Estimated
03:56PM -5.6216 -51.7511 152° Southeast  Level Estimated
03:57PM -5.7354 -51.6911 152° Southeast  Level Estimated
03:58PM -5.8492 -51.6310 152° Southeast  Level Estimated
03:59PM -5.9630 -51.5709 152° Southeast  Level Estimated
04:00PM -6.0769 -51.5107 152° Southeast  Level Estimated
04:01PM -6.1907 -51.4506 152° Southeast  Level Estimated
04:02PM -6.3045 -51.3904 152° Southeast  Level Estimated
04:03PM -6.4183 -51.3302 152° Southeast  Level Estimated
04:04PM -6.5321 -51.2700 152° Southeast  Level Estimated
04:05PM -6.6458 -51.2097 152° Southeast  Level Estimated
04:06PM -6.7596 -51.1494 152° Southeast  Level Estimated
04:07PM -6.8734 -51.0891 152° Southeast  Level Estimated
04:08PM -6.9872 -51.0288 152° Southeast  Level Estimated
04:09PM -7.1009 -50.9684 152° Southeast  Level Estimated
04:10PM -7.2147 -50.9080 152° Southeast  Level Estimated
04:11PM -7.3284 -50.8476 152° Southeast  Level Estimated
04:12PM -7.4421 -50.7871 152° Southeast  Level Estimated
04:13PM -7.5558 -50.7266 152° Southeast  Level Estimated
04:14PM -7.6695 -50.6661 152° Southeast  Level Estimated
04:15PM -7.7832 -50.6055 152° Southeast  Level Estimated
04:16PM -7.8969 -50.5449 152° Southeast  Level Estimated
04:17PM -8.0106 -50.4843 152° Southeast  Level Estimated
04:18PM -8.1243 -50.4236 152° Southeast  Level Estimated
04:19PM -8.2380 -50.3629 152° Southeast  Level Estimated
04:20PM -8.3517 -50.3022 152° Southeast  Level Estimated
04:21PM -8.4653 -50.2415 152° Southeast  Level Estimated
04:22PM -8.5789 -50.1806 152° Southeast  Level Estimated
04:23PM -8.6926 -50.1198 152° Southeast  Level Estimated
04:24PM -8.8062 -50.0589 152° Southeast  Level Estimated
04:25PM -8.9198 -49.9980 152° Southeast  Level Estimated
04:26PM -9.0334 -49.9371 152° Southeast  Level Estimated
04:27PM -9.1470 -49.8761 152° Southeast  Level Estimated
04:28PM -9.2606 -49.8151 152° Southeast  Level Estimated
04:29PM -9.3741 -49.7540 152° Southeast  Level Estimated
04:30PM -9.4877 -49.6929 152° Southeast  Level Estimated
04:31PM -9.6012 -49.6317 152° Southeast  Level Estimated
04:32PM -9.7148 -49.5705 152° Southeast  Level Estimated
04:33PM -9.8283 -49.5093 152° Southeast  Level Estimated
04:34PM -9.9418 -49.4480 152° Southeast  Level Estimated
04:34PM -10.6690 -50.3530 152° Southeast 471 542 39,000  Level FlightAware
04:34PM -10.7270 -50.3010 139° Southeast 471 542 39,000  Level FlightAware
04:35PM -10.7040 -50.3220 318° Northwest 473 544 39,000  Level FlightAware
04:36PM -10.6690 -50.3530 319° Northwest 474 545 39,000  Level FlightAware
04:36PM -10.9420 -50.1300 141° Southeast 474 545 39,000  Level FlightAware
04:37PM -10.9940 -50.0980 149° Southeast 476 548 39,000  Level FlightAware
04:37PM -11.0560 -50.0590 148° Southeast 476 548 39,000  Level FlightAware
04:38PM -10.9940 -50.0980 328° Northwest 982 1130 39,000  Level FlightAware
04:39PM -11.2300 -49.9590 150° Southeast 476 548 39,000  Level FlightAware
04:39PM -11.2300 -49.9590 150° Southeast 474 545 39,000  Level FlightAware
04:40PM -11.3580 -49.8830 150° Southeast 473 544 39,000  Level FlightAware
04:41PM -11.4390 -49.8340 149° Southeast 473 544 39,000  Level FlightAware
04:41PM -11.4420 -49.8330 162° South 473 544 39,000  Level FlightAware
04:42PM -11.6330 -49.7180 149° Southeast 472 543 39,000  Level FlightAware
04:43PM -11.6880 -49.6840 149° Southeast 472 543 39,000  Level FlightAware
04:43PM -11.7450 -49.6490 149° Southeast 472 543 39,000  Level FlightAware
04:44PM -11.8030 -49.6140 149° Southeast 472 543 39,000  Level FlightAware
04:45PM -11.9010 -49.5580 151° Southeast 473 544 39,000  Level FlightAware
04:45PM -11.9790 -49.5140 151° Southeast 474 545 39,000  Level FlightAware
04:46PM -12.0380 -49.4810 151° Southeast 474 545 39,000  Level FlightAware
04:47PM -12.0960 -49.4480 151° Southeast 474 545 39,000  Level FlightAware
04:47PM -12.1530 -49.4160 151° Southeast 474 545 39,000  Level FlightAware
04:48PM -12.2120 -49.3820 151° Southeast 474 545 39,000  Level FlightAware
04:48PM -12.2710 -49.3490 151° Southeast 474 545 39,000  Level FlightAware
04:49PM -11.9330 -49.5400 331° Northwest 39,000  Level FlightAware
04:51PM -12.1263 -49.4060 146° Southeast  Level Estimated
04:52PM -12.2327 -49.3321 146° Southeast  Level Estimated
04:53PM -12.3391 -49.2582 146° Southeast  Level Estimated
04:54PM -12.4454 -49.1842 146° Southeast  Level Estimated
04:55PM -12.5517 -49.1102 146° Southeast  Level Estimated
04:56PM -12.6580 -49.0361 146° Southeast  Level Estimated
04:57PM -12.7643 -48.9619 146° Southeast  Level Estimated
04:58PM -12.8706 -48.8877 146° Southeast  Level Estimated
04:59PM -12.9768 -48.8134 146° Southeast  Level Estimated
05:00PM -13.0830 -48.7391 146° Southeast  Level Estimated
05:01PM -13.1892 -48.6646 146° Southeast  Level Estimated
05:02PM -13.2954 -48.5902 146° Southeast  Level Estimated
05:02PM -13.7480 -48.1470 146° Southeast 486 559 39,000  Level FlightAware
05:03PM -13.8090 -48.0950 140° Southeast 486 559 39,000  Level FlightAware
05:03PM -13.8630 -48.0500 141° Southeast 486 559 39,000  Level FlightAware
05:04PM -13.9280 -47.9950 141° Southeast 485 558 39,000  Level FlightAware
05:04PM -13.9990 -47.9360 141° Southeast 485 558 39,000  Level FlightAware
05:05PM -14.0620 -47.8830 141° Southeast 487 560 39,000  Level FlightAware
05:06PM -14.1320 -47.8240 141° Southeast 488 562 39,000  Level FlightAware
05:06PM -14.1780 -47.7860 141° Southeast 488 562 39,000  Level FlightAware
05:07PM -14.2450 -47.7290 140° Southeast 489 563 39,000  Level FlightAware
05:07PM -14.3230 -47.6630 141° Southeast 487 560 39,000  Level FlightAware
05:08PM -14.3850 -47.6110 141° Southeast 487 560 39,000  Level FlightAware
05:09PM -14.4340 -47.5690 140° Southeast 488 562 39,000  Level FlightAware
05:09PM -14.5080 -47.5060 141° Southeast 490 564 39,000  Level FlightAware
05:10PM -14.5690 -47.4550 141° Southeast 491 565 39,000  Level FlightAware
05:10PM -14.6300 -47.4030 140° Southeast 491 565 39,000  Level FlightAware
05:11PM -14.6740 -47.3660 141° Southeast 491 565 39,000  Level FlightAware
05:12PM -14.7540 -47.2980 141° Southeast 491 565 39,000  Level FlightAware
05:12PM -14.8200 -47.2420 141° Southeast 491 565 39,000  Level FlightAware
05:13PM -14.8860 -47.1860 141° Southeast 491 565 39,000 -600 Level FlightAware
05:13PM -14.9450 -47.1350 140° Southeast 491 565 38,300 -1,680 Descending FlightAware
05:14PM -15.0090 -47.0810 141° Southeast 492 566 37,100 -960 Descending FlightAware
05:15PM -15.0940 -47.0090 141° Southeast 484 557 37,000 -120 Descending FlightAware
05:15PM -15.1570 -46.9550 140° Southeast 486 559 37,000  Level FlightAware
05:16PM -15.2180 -46.9030 141° Southeast 487 560 37,000  Level FlightAware
05:17PM -15.2780 -46.8520 141° Southeast 485 558 37,000  Level FlightAware
05:17PM -15.3390 -46.7990 140° Southeast 484 557 37,000  Level FlightAware
05:18PM -15.3990 -46.7480 141° Southeast 485 558 37,000  Level FlightAware
05:18PM -15.4600 -46.6960 141° Southeast 485 558 37,000  Level FlightAware
05:19PM -15.5200 -46.6440 140° Southeast 486 559 37,000  Level FlightAware
05:19PM -15.5810 -46.5920 141° Southeast 486 559 37,000  Level FlightAware
05:20PM -15.6420 -46.5400 141° Southeast 487 560 37,000  Level FlightAware
05:21PM -15.7030 -46.4880 141° Southeast 487 560 37,000  Level FlightAware
05:21PM -15.7620 -46.4370 140° Southeast 489 563 37,000  Level FlightAware
05:22PM -15.8120 -46.3940 140° Southeast 487 560 37,000  Level FlightAware
05:22PM -15.8850 -46.3310 140° Southeast 487 560 37,000  Level FlightAware
05:23PM -15.9460 -46.2790 141° Southeast 487 560 37,000  Level FlightAware
05:24PM -16.0170 -46.2170 140° Southeast 486 559 37,000  Level FlightAware
05:24PM -16.0710 -46.1700 140° Southeast 486 559 37,000  Level FlightAware
05:25PM -16.1260 -46.1230 141° Southeast 486 559 37,000  Level FlightAware
05:26PM -16.1780 -46.0760 139° Southeast 486 559 37,000  Level FlightAware
05:26PM -16.2310 -46.0300 140° Southeast 486 559 37,000  Level FlightAware
05:27PM -16.2840 -45.9840 140° Southeast 486 559 37,000  Level FlightAware
05:27PM -16.3380 -45.9370 140° Southeast 486 559 37,000  Level FlightAware
05:28PM -16.3910 -45.8910 140° Southeast 486 559 37,000  Level FlightAware
05:29PM -16.5330 -45.7700 141° Southeast 487 560 37,000  Level FlightAware
05:29PM -16.5950 -45.7160 140° Southeast 486 559 37,000  Level FlightAware
05:30PM -16.6640 -45.6560 140° Southeast 486 559 37,000  Level FlightAware
05:30PM -16.7260 -45.6030 141° Southeast 488 562 37,000  Level FlightAware
05:31PM -16.7870 -45.5500 140° Southeast 488 562 37,000  Level FlightAware
05:32PM -16.8450 -45.4990 140° Southeast 488 562 37,000  Level FlightAware
05:32PM -16.9260 -45.4280 140° Southeast 490 564 37,000  Level FlightAware
05:33PM -16.9760 -45.3840 140° Southeast 490 564 37,000  Level FlightAware
05:33PM -17.0390 -45.3290 140° Southeast 489 563 37,000  Level FlightAware
05:34PM -17.1080 -45.2690 140° Southeast 489 563 37,000  Level FlightAware
05:35PM -17.1530 -45.2290 140° Southeast 489 563 37,000  Level FlightAware
05:35PM -17.2210 -45.1700 140° Southeast 490 564 37,000  Level FlightAware
05:36PM -17.2780 -45.1200 140° Southeast 491 565 37,000  Level FlightAware
05:36PM -17.3490 -45.0570 140° Southeast 491 565 37,000  Level FlightAware
05:37PM -17.4090 -45.0050 140° Southeast 489 563 37,000  Level FlightAware
05:38PM -17.4630 -44.9570 140° Southeast 488 562 37,000  Level FlightAware
05:38PM -17.5230 -44.9040 140° Southeast 486 559 37,000  Level FlightAware
05:39PM -17.5940 -44.8420 140° Southeast 486 559 37,000  Level FlightAware
05:39PM -17.6520 -44.7900 139° Southeast 487 560 37,000  Level FlightAware
05:40PM -17.7040 -44.7440 140° Southeast 486 559 37,000  Level FlightAware
05:40PM -17.7480 -44.7100 144° Southeast 479 551 37,000  Level FlightAware
05:41PM -17.7920 -44.6920 159° South 470 541 37,000  Level FlightAware
05:41PM -17.8650 -44.6730 166° South 470 541 37,000  Level FlightAware
05:42PM -17.9400 -44.6520 165° South 471 542 37,000  Level FlightAware
05:42PM -18.0140 -44.6320 166° South 472 543 37,000  Level FlightAware
05:43PM -18.0940 -44.6110 166° South 473 544 37,000 -660 Level FlightAware
05:44PM -18.1700 -44.5900 165° South 482 555 36,200 -1,800 Descending FlightAware
05:44PM -18.2390 -44.5710 165° South 478 550 34,900 -1,980 Descending FlightAware
05:45PM -18.3230 -44.5480 165° South 468 539 33,900 -1,740 Descending FlightAware
05:45PM -18.3930 -44.5290 166° South 457 526 32,900 -1,680 Descending FlightAware
05:46PM -18.4670 -44.5090 166° South 446 513 32,000 -1,680 Descending FlightAware
05:47PM -18.5360 -44.4890 165° South 441 507 31,000 -1,620 Descending FlightAware
05:47PM -18.6140 -44.4680 166° South 435 501 30,000 -1,560 Descending FlightAware
05:48PM -18.6710 -44.4520 165° South 430 495 29,200 -1,620 Descending FlightAware
05:48PM -18.7410 -44.4330 166° South 426 490 28,300 -1,560 Descending FlightAware
05:49PM -18.8050 -44.4160 166° South 425 489 27,400 -2,340 Descending FlightAware
05:49PM -18.8520 -44.3950 157° South 441 507 26,000 -3,300 Descending FlightAware
05:50PM -18.9000 -44.3510 139° Southeast 458 527 24,400 -2,160 Descending FlightAware
05:50PM -18.9560 -44.3000 139° Southeast 438 504 23,700 -1,500 Descending FlightAware
05:51PM -19.0080 -44.2520 139° Southeast 429 494 22,700 -1,920 Descending FlightAware
05:52PM -19.0660 -44.2000 140° Southeast 425 489 21,300 -2,040 Descending FlightAware
05:52PM -19.1210 -44.1500 139° Southeast 419 482 20,200 -1,800 Descending FlightAware
05:53PM -19.1640 -44.1110 139° Southeast 409 471 19,400 -1,800 Descending FlightAware
05:53PM -19.2220 -44.0590 140° Southeast 402 463 18,100 -1,980 Descending FlightAware
05:54PM -19.2630 -44.0210 139° Southeast 390 449 17,100 -2,820 Descending FlightAware
05:54PM -19.3100 -43.9790 140° Southeast 388 447 15,100 -2,820 Descending FlightAware
05:55PM -19.3580 -43.9360 140° Southeast 378 435 13,900 -1,740 Descending FlightAware
05:56PM -19.4020 -43.8950 139° Southeast 367 422 13,100 -1,500 Descending FlightAware
05:56PM -19.4430 -43.8620 143° Southeast 352 405 12,300 -2,040 Descending FlightAware
05:56PM -19.4660 -43.8530 160° South 340 391 11,600 -2,820 Descending FlightAware
05:57PM -19.5110 -43.8390 164° South 332 382 10,200 -2,220 Descending FlightAware
05:57PM -19.5460 -43.8270 162° South 301 346 9,600 -1,620 Descending FlightAware
05:58PM -19.5630 -43.8210 162° South 294 338 9,100 -2,280 Descending FlightAware
05:58PM -19.5920 -43.8110 162° South 293 337 8,300 -2,520 Descending FlightAware
05:58PM -19.6110 -43.8050 163° South 293 337 7,700 -2,100 Descending FlightAware
05:58PM -19.6380 -43.7960 163° South 294 338 7,100 -1,200 Descending FlightAware
05:59PM -19.6600 -43.7880 161° South 285 328 6,900 -240 Descending FlightAware
05:59PM -19.6990 -43.7740 161° South 258 297 6,900  Level FlightAware
06:00PM -19.7150 -43.7690 164° South 246 283 6,900  Level FlightAware
06:00PM -19.7250 -43.7660 164° South 241 277 6,900 -540 Level FlightAware
06:00PM -19.7480 -43.7800 210° Southwest 229 264 6,600 -900 Descending FlightAware
06:00PM -19.7510 -43.7900 252° West 229 264 6,400 -1,020 Descending FlightAware
06:01PM -19.7590 -43.8120 249° West 227 261 6,100 -900 Descending FlightAware
06:01PM -19.7650 -43.8330 253° West 221 254 5,800 -780 Descending FlightAware
06:01PM -19.7600 -43.8510 286° West 209 241 5,600 -780 Descending FlightAware
06:01PM -19.7530 -43.8590 313° West 209 241 5,400 -1,080 Descending FlightAware
06:02PM -19.7350 -43.8750 320° Northwest 193 222 5,000 -1,080 Descending FlightAware
06:02PM -19.7220 -43.8870 319° Northwest 181 208 4,600 -1,080 Descending FlightAware
06:03PM -19.7060 -43.9020 319° Northwest 170 196 4,200 -960 Descending FlightAware
06:03PM -19.6950 -43.9120 319° Northwest 159 183 3,900 -840 Descending FlightAware
06:03PM -19.6890 -43.9170 322° Northwest 153 176 3,800 -840 Descending FlightAware
06:03PM -19.6790 -43.9260 320° Northwest 146 168 3,500 -840 Descending FlightAware
06:04PM -19.6660 -43.9390 317° Northwest 151 174 3,200 -780 Descending FlightAware
06:04PM -19.6580 -43.9460 321° Northwest 152 175 3,000 -900 Descending FlightAware
06:04PM -19.6480 -43.9560 317° Northwest 148 170 2,700 -900 Descending FlightAware
06:05PM -19.6370 -43.9660 319° Northwest 140 161 -8,100 Descending FlightAware